createdAt,value
2022-09-20T00:01:22.558Z,99.90
2022-09-20T00:03:55.711Z,99.90
2022-09-20T00:06:26.316Z,99.90
2022-09-20T00:08:53.549Z,99.90
2022-09-20T00:11:23.573Z,99.90
2022-09-20T00:13:53.341Z,99.90
2022-09-20T00:16:26.240Z,99.90
2022-09-20T00:18:55.345Z,99.90
2022-09-20T00:21:24.876Z,99.90
2022-09-20T00:23:56.582Z,99.90
2022-09-20T00:26:23.836Z,99.90
2022-09-20T00:28:51.709Z,99.90
2022-09-20T00:31:19.193Z,99.90
2022-09-20T00:34:05.070Z,99.90
2022-09-20T00:36:31.916Z,99.90
2022-09-20T00:39:00.593Z,99.90
2022-09-20T00:41:28.044Z,99.90
2022-09-20T00:43:54.915Z,99.90
2022-09-20T00:46:27.530Z,99.90
2022-09-20T00:48:59.040Z,99.90
2022-09-20T00:51:29.728Z,99.90
2022-09-20T00:53:59.477Z,99.90
2022-09-20T00:56:31.159Z,99.90
2022-09-20T00:59:21.364Z,99.90
2022-09-20T01:01:53.783Z,99.90
2022-09-20T01:04:22.786Z,99.90
2022-09-20T01:06:53.670Z,99.90
2022-09-20T01:09:20.337Z,99.90
2022-09-20T01:11:47.839Z,99.90
2022-09-20T01:14:15.817Z,99.90
2022-09-20T01:16:42.635Z,99.90
2022-09-20T01:19:20.389Z,99.90
2022-09-20T01:21:48.472Z,99.90
2022-09-20T01:24:28.442Z,99.90
2022-09-20T01:27:04.670Z,99.90
2022-09-20T01:29:47.823Z,99.90
2022-09-20T01:32:20.487Z,99.90
2022-09-20T01:35:01.065Z,99.90
2022-09-20T01:37:45.365Z,99.90
2022-09-20T01:40:14.680Z,99.90
2022-09-20T01:42:50.977Z,99.90
2022-09-20T01:45:30.774Z,99.90
2022-09-20T01:48:04.580Z,99.90
2022-09-20T01:50:58.929Z,99.90
2022-09-20T01:54:03.121Z,99.90
2022-09-20T01:56:32.700Z,99.90
2022-09-20T01:59:25.578Z,99.90
2022-09-20T02:02:11.226Z,99.90
2022-09-20T02:04:58.945Z,99.90
2022-09-20T02:07:44.904Z,99.90
2022-09-20T02:10:14.525Z,99.90
2022-09-20T02:12:54.204Z,99.90
2022-09-20T02:15:41.129Z,99.90
2022-09-20T02:18:24.959Z,99.90
2022-09-20T02:21:20.289Z,99.90
2022-09-20T02:24:08.724Z,99.90
2022-09-20T02:26:46.072Z,99.90
2022-09-20T02:29:24.601Z,99.90
2022-09-20T02:32:26.939Z,99.90
2022-09-20T02:35:14.997Z,99.90
2022-09-20T02:37:50.365Z,99.90
2022-09-20T02:40:44.899Z,99.90
2022-09-20T02:43:37.838Z,99.90
2022-09-20T02:46:28.497Z,99.90
2022-09-20T02:49:11.118Z,99.90
2022-09-20T02:51:49.347Z,99.90
2022-09-20T02:54:30.651Z,99.90
2022-09-20T02:57:11.436Z,99.90
2022-09-20T02:59:52.729Z,99.90
2022-09-20T03:02:51.967Z,99.90
2022-09-20T03:05:31.813Z,99.90
2022-09-20T03:08:23.008Z,99.90
2022-09-20T03:11:28.231Z,99.90
2022-09-20T03:14:23.104Z,99.90
2022-09-20T03:17:10.888Z,99.90
2022-09-20T03:19:52.662Z,99.90
2022-09-20T03:22:53.425Z,99.90
2022-09-20T03:25:51.158Z,99.90
2022-09-20T03:28:53.352Z,99.90
2022-09-20T03:31:57.513Z,99.90
2022-09-20T03:34:33.048Z,99.90
2022-09-20T03:37:15.421Z,99.90
2022-09-20T03:39:55.361Z,99.90
2022-09-20T03:42:27.019Z,99.90
2022-09-20T03:45:05.656Z,99.90
2022-09-20T03:48:05.916Z,99.90
2022-09-20T03:50:52.533Z,99.90
2022-09-20T03:53:28.092Z,99.90
2022-09-20T03:56:13.344Z,99.90
2022-09-20T03:59:14.305Z,99.90
2022-09-20T04:02:00.779Z,99.90
2022-09-20T04:04:39.867Z,99.90
2022-09-20T04:07:21.487Z,99.90
2022-09-20T04:10:22.123Z,99.90
2022-09-20T04:13:15.456Z,99.90
2022-09-20T04:15:54.297Z,99.90
2022-09-20T04:18:38.439Z,99.90
2022-09-20T04:21:14.041Z,99.90
2022-09-20T04:23:49.685Z,99.90
2022-09-20T04:26:25.735Z,99.90
2022-09-20T04:29:16.642Z,99.90
2022-09-20T04:31:57.581Z,99.90
2022-09-20T04:34:53.933Z,99.90
2022-09-20T04:37:32.951Z,99.90
2022-09-20T04:40:34.211Z,99.90
2022-09-20T04:43:35.253Z,99.90
2022-09-20T04:46:45.672Z,99.90
2022-09-20T04:49:37.898Z,99.90
2022-09-20T04:52:26.469Z,99.90
2022-09-20T04:55:05.035Z,99.90
2022-09-20T04:57:53.816Z,99.90
2022-09-20T05:00:24.977Z,99.90
2022-09-20T05:03:11.020Z,99.90
2022-09-20T05:05:56.216Z,99.90
2022-09-20T05:08:59.063Z,99.90
2022-09-20T05:12:02.865Z,99.90
2022-09-20T05:15:00.250Z,99.90
2022-09-20T05:17:30.876Z,99.90
2022-09-20T05:20:25.144Z,99.90
2022-09-20T05:23:22.693Z,99.90
2022-09-20T05:26:13.837Z,99.90
2022-09-20T05:28:53.740Z,99.90
2022-09-20T05:31:47.023Z,99.90
2022-09-20T05:34:46.387Z,99.90
2022-09-20T05:37:39.848Z,99.90
2022-09-20T05:40:26.563Z,99.90
2022-09-20T05:43:01.963Z,99.90
2022-09-20T05:45:49.766Z,99.90
2022-09-20T05:48:32.304Z,99.90
2022-09-20T05:51:04.101Z,99.90
2022-09-20T05:53:48.884Z,99.90
2022-09-20T05:56:37.249Z,99.90
2022-09-20T05:59:30.505Z,99.90
2022-09-20T06:02:37.573Z,99.90
2022-09-20T06:05:04.184Z,99.90
2022-09-20T06:07:48.810Z,99.90
2022-09-20T06:10:39.707Z,99.90
2022-09-20T06:13:09.226Z,99.90
2022-09-20T06:15:52.497Z,99.90
2022-09-20T06:18:37.628Z,99.90
2022-09-20T06:21:22.850Z,99.90
2022-09-20T06:23:49.714Z,99.90
2022-09-20T06:26:17.323Z,99.90
2022-09-20T06:28:54.197Z,99.90
2022-09-20T06:31:24.365Z,99.90
2022-09-20T06:34:02.031Z,99.90
2022-09-20T06:36:51.794Z,99.90
2022-09-20T06:39:50.496Z,99.90
2022-09-20T06:42:17.293Z,99.90
2022-09-20T06:44:43.873Z,99.90
2022-09-20T06:47:11.821Z,99.90
2022-09-20T06:49:41.070Z,99.90
2022-09-20T06:52:12.313Z,99.90
2022-09-20T06:54:38.889Z,99.90
2022-09-20T06:57:06.428Z,99.90
2022-09-20T06:59:33.005Z,99.90
2022-09-20T07:01:59.592Z,99.90
2022-09-20T07:04:26.837Z,99.90
2022-09-20T07:07:01.102Z,99.90
2022-09-20T07:09:28.082Z,99.90
2022-09-20T07:11:56.231Z,99.90
2022-09-20T07:14:23.378Z,99.90
2022-09-20T07:16:49.994Z,99.90
2022-09-20T07:19:16.565Z,99.90
2022-09-20T07:21:43.137Z,99.90
2022-09-20T07:24:09.801Z,99.90
2022-09-20T07:26:38.761Z,99.90
2022-09-20T07:29:07.787Z,99.90
2022-09-20T07:31:34.419Z,99.90
2022-09-20T07:34:00.980Z,99.90
2022-09-20T07:36:27.516Z,99.90
2022-09-20T07:38:54.130Z,99.90
2022-09-20T07:41:22.796Z,99.90
2022-09-20T07:43:50.685Z,99.90
2022-09-20T07:46:17.302Z,99.90
2022-09-20T07:48:44.151Z,99.90
2022-09-20T07:51:13.410Z,99.90
2022-09-20T07:53:40.641Z,99.90
2022-09-20T07:56:11.390Z,99.90
2022-09-20T07:58:38.423Z,99.90
2022-09-20T08:01:10.643Z,99.90
2022-09-20T08:03:37.736Z,99.90
2022-09-20T08:06:10.382Z,99.90
2022-09-20T08:08:38.869Z,99.90
2022-09-20T08:11:08.151Z,99.90
2022-09-20T08:16:32.880Z,99.90
2022-09-20T08:19:02.644Z,99.90
2022-09-20T08:21:32.511Z,99.90
2022-09-20T08:24:00.156Z,99.90
2022-09-20T08:26:28.414Z,99.90
2022-09-20T08:28:56.977Z,99.90
2022-09-20T08:31:26.567Z,99.90
2022-09-20T08:33:54.508Z,99.90
2022-09-20T08:36:24.462Z,99.90
2022-09-20T08:42:00.990Z,94.60
2022-09-20T08:44:35.900Z,90.60
2022-09-20T08:47:12.348Z,91.10
2022-09-20T08:49:45.784Z,88.00
2022-09-20T08:52:19.368Z,86.80
2022-09-20T08:54:46.661Z,86.10
2022-09-20T08:57:16.954Z,86.10
2022-09-20T08:59:44.151Z,88.30
2022-09-20T09:02:19.491Z,88.80
2022-09-20T09:04:47.397Z,89.50
2022-09-20T09:07:16.788Z,91.50
2022-09-20T09:09:46.488Z,91.10
2022-09-20T09:12:24.248Z,92.80
2022-09-20T09:14:55.120Z,92.80
2022-09-20T09:17:28.219Z,95.10
2022-09-20T09:19:57.588Z,96.20
2022-09-20T09:22:35.084Z,97.90
2022-09-20T09:25:10.596Z,99.40
2022-09-20T09:28:18.506Z,99.90
2022-09-20T09:30:47.513Z,99.90
2022-09-20T09:33:19.928Z,99.90
2022-09-20T09:35:58.952Z,99.90
2022-09-20T09:38:29.623Z,99.90
2022-09-20T09:41:01.757Z,99.90
2022-09-20T09:43:32.290Z,99.90
2022-09-20T09:46:22.004Z,99.90
2022-09-20T09:49:15.403Z,99.90
2022-09-20T09:52:01.490Z,99.90
2022-09-20T09:54:50.487Z,99.90
2022-09-20T09:57:40.821Z,97.70
2022-09-20T10:00:22.277Z,96.70
2022-09-20T10:03:10.248Z,98.10
2022-09-20T10:06:04.725Z,99.70
2022-09-20T10:08:35.242Z,99.90
2022-09-20T10:11:37.404Z,99.90
2022-09-20T10:14:19.590Z,99.90
2022-09-20T10:17:10.424Z,98.40
2022-09-20T10:20:06.220Z,99.90
2022-09-20T10:23:21.720Z,98.20
2022-09-20T10:25:56.132Z,98.60
2022-09-20T10:28:50.300Z,99.60
2022-09-20T10:31:45.574Z,98.20
2022-09-20T10:34:50.641Z,99.00
2022-09-20T10:38:08.096Z,99.90
2022-09-20T10:41:07.504Z,99.90
2022-09-20T10:44:05.412Z,99.90
2022-09-20T10:46:53.506Z,99.90
2022-09-20T10:49:50.878Z,94.90
2022-09-20T10:52:37.207Z,95.70
2022-09-20T10:55:40.569Z,95.80
2022-09-20T10:58:30.477Z,95.50
2022-09-20T11:01:23.297Z,96.90
2022-09-20T11:04:02.056Z,95.10
2022-09-20T11:06:49.936Z,93.80
2022-09-20T11:09:22.052Z,94.20
2022-09-20T11:12:22.408Z,95.60
2022-09-20T11:14:55.239Z,95.10
2022-09-20T11:17:31.723Z,95.00
2022-09-20T11:20:07.212Z,95.00
2022-09-20T11:22:39.596Z,97.50
2022-09-20T11:25:29.508Z,99.90
2022-09-20T11:28:09.752Z,99.90
2022-09-20T11:30:54.862Z,99.90
2022-09-20T11:33:29.877Z,99.90
2022-09-20T11:36:02.087Z,99.90
2022-09-20T11:38:37.476Z,99.90
2022-09-20T11:41:19.776Z,99.90
2022-09-20T11:43:47.810Z,99.90
2022-09-20T11:46:23.767Z,99.90
2022-09-20T11:49:04.581Z,99.90
2022-09-20T11:51:39.953Z,99.90
2022-09-20T11:54:45.745Z,99.90
2022-09-20T11:57:16.572Z,99.90
2022-09-20T11:59:54.358Z,99.90
2022-09-20T12:02:37.367Z,99.90
2022-09-20T12:05:06.327Z,99.90
2022-09-20T12:07:39.996Z,99.90
2022-09-20T12:10:24.488Z,99.90
2022-09-20T12:12:59.331Z,99.90
2022-09-20T12:15:39.987Z,99.90
2022-09-20T12:18:12.349Z,99.90
2022-09-20T12:20:38.913Z,99.90
2022-09-20T12:23:42.774Z,99.90
2022-09-20T12:26:21.568Z,99.90
2022-09-20T12:28:53.447Z,99.90
2022-09-20T12:31:37.814Z,99.90
2022-09-20T12:34:24.375Z,99.90
2022-09-20T12:36:52.078Z,99.90
2022-09-20T12:39:24.185Z,99.90
2022-09-20T12:42:03.301Z,99.90
2022-09-20T12:44:41.810Z,99.90
2022-09-20T12:47:11.324Z,99.90
2022-09-20T12:50:05.328Z,99.90
2022-09-20T12:52:53.390Z,99.90
2022-09-20T12:55:49.442Z,99.90
2022-09-20T12:58:16.029Z,99.90
2022-09-20T13:00:48.740Z,99.90
2022-09-20T13:03:15.331Z,99.90
2022-09-20T13:05:47.012Z,99.90
2022-09-20T13:08:16.593Z,99.90
2022-09-20T13:11:13.151Z,99.90
2022-09-20T13:13:43.697Z,99.90
2022-09-20T13:16:40.162Z,99.90
2022-09-20T13:19:12.085Z,99.90
2022-09-20T13:21:42.188Z,99.90
2022-09-20T13:24:15.850Z,99.90
2022-09-20T13:26:46.685Z,99.90
2022-09-20T13:29:27.285Z,99.90
2022-09-20T13:31:56.329Z,99.90
2022-09-20T13:34:25.677Z,99.90
2022-09-20T13:36:58.126Z,99.90
2022-09-20T13:39:36.108Z,99.90
2022-09-20T13:42:09.041Z,99.90
2022-09-20T13:44:37.148Z,99.90
2022-09-20T13:47:23.916Z,99.90
2022-09-20T13:49:50.660Z,99.90
2022-09-20T13:52:29.137Z,99.90
2022-09-20T13:54:55.931Z,99.90
2022-09-20T13:57:27.476Z,99.90
2022-09-20T13:59:54.940Z,99.90
2022-09-20T14:02:26.229Z,99.90
2022-09-20T14:04:56.005Z,99.90
2022-09-20T14:07:26.013Z,99.90
2022-09-20T14:09:54.005Z,99.90
2022-09-20T14:12:22.711Z,99.90
2022-09-20T14:14:50.884Z,99.90
2022-09-20T14:17:20.440Z,99.90
2022-09-20T14:19:50.023Z,99.90
2022-09-20T14:22:22.868Z,99.90
2022-09-20T14:25:25.837Z,99.90
2022-09-20T14:28:06.441Z,99.90
2022-09-20T14:30:36.837Z,99.90
2022-09-20T14:33:06.238Z,99.90
2022-09-20T14:35:33.003Z,99.90
2022-09-20T14:38:08.378Z,99.90
2022-09-20T14:40:47.209Z,99.90
2022-09-20T14:43:32.837Z,99.90
2022-09-20T14:46:04.698Z,99.90
2022-09-20T14:48:42.767Z,99.90
2022-09-20T14:51:22.264Z,99.90
2022-09-20T14:53:52.382Z,99.90
2022-09-20T14:56:37.708Z,99.90
2022-09-20T14:59:19.113Z,99.90
2022-09-20T15:02:13.515Z,99.90
2022-09-20T15:04:42.157Z,99.90
2022-09-20T15:07:11.449Z,99.90
2022-09-20T15:09:38.225Z,99.90
2022-09-20T15:12:18.523Z,99.90
2022-09-20T15:14:46.126Z,99.90
2022-09-20T15:17:21.366Z,99.90
2022-09-20T15:19:49.157Z,99.90
2022-09-20T15:22:15.912Z,99.90
2022-09-20T15:24:43.406Z,99.90
2022-09-20T15:27:12.183Z,99.90
2022-09-20T15:29:39.022Z,99.90
2022-09-20T15:32:06.279Z,99.90
2022-09-20T15:34:32.896Z,99.90
2022-09-20T15:36:59.468Z,99.90
2022-09-20T15:39:26.054Z,99.90
2022-09-20T15:41:52.880Z,99.90
2022-09-20T15:44:20.195Z,99.90
2022-09-20T15:46:48.128Z,99.90
2022-09-20T15:49:14.768Z,99.90
2022-09-20T15:51:41.492Z,99.90
2022-09-20T15:54:12.600Z,99.90
2022-09-20T15:56:41.892Z,99.90
2022-09-20T15:59:11.128Z,99.90
2022-09-20T16:01:40.179Z,99.90
2022-09-20T16:04:09.948Z,99.90
2022-09-20T16:06:37.964Z,99.90
2022-09-20T16:09:04.908Z,99.90
2022-09-20T16:11:32.226Z,99.90
2022-09-20T16:14:00.397Z,99.90
2022-09-20T16:16:29.820Z,99.90
2022-09-20T16:19:15.456Z,99.90
2022-09-20T16:21:44.089Z,99.90
2022-09-20T16:24:12.428Z,99.90
2022-09-20T16:26:39.770Z,99.90
2022-09-20T16:29:11.741Z,99.90
2022-09-20T16:31:49.266Z,99.90
2022-09-20T16:34:22.983Z,99.90
2022-09-20T16:36:51.337Z,99.90
2022-09-20T16:39:19.635Z,99.90
2022-09-20T16:41:48.120Z,99.90
2022-09-20T16:44:15.638Z,99.90
2022-09-20T16:46:42.432Z,99.90
2022-09-20T16:49:11.434Z,99.90
2022-09-20T16:51:40.399Z,99.90
2022-09-20T16:54:11.538Z,99.90
2022-09-20T16:56:48.799Z,99.90
2022-09-20T16:59:17.818Z,99.90
2022-09-20T17:01:45.444Z,99.90
2022-09-20T17:04:14.113Z,99.90
2022-09-20T17:06:43.290Z,99.90
2022-09-20T17:09:10.957Z,99.90
2022-09-20T17:11:40.247Z,99.90
2022-09-20T17:14:07.338Z,99.90
2022-09-20T17:16:36.826Z,99.90
2022-09-20T17:19:09.320Z,99.90
2022-09-20T17:21:46.027Z,99.90
2022-09-20T17:24:14.032Z,99.90
2022-09-20T17:26:44.561Z,99.90
2022-09-20T17:29:17.355Z,99.90
2022-09-20T17:31:50.070Z,99.90
2022-09-20T17:34:21.285Z,99.90
2022-09-20T17:36:48.638Z,99.90
2022-09-20T17:39:16.414Z,99.90
2022-09-20T17:41:45.669Z,99.90
2022-09-20T17:44:12.659Z,99.90
2022-09-20T17:46:41.345Z,99.90
2022-09-20T17:49:10.232Z,99.90
2022-09-20T17:51:36.793Z,99.90
2022-09-20T17:54:03.763Z,99.90
2022-09-20T17:56:31.309Z,99.90
2022-09-20T17:59:00.083Z,99.90
2022-09-20T18:01:28.429Z,99.90
2022-09-20T18:03:57.037Z,99.90
2022-09-20T18:06:27.039Z,99.90
2022-09-20T18:08:59.051Z,99.90
2022-09-20T18:11:32.112Z,99.90
2022-09-20T18:14:00.133Z,99.90
2022-09-20T18:16:26.933Z,99.90
2022-09-20T18:18:53.877Z,99.90
2022-09-20T18:21:23.597Z,99.90
2022-09-20T18:23:51.759Z,99.90
2022-09-20T18:26:24.144Z,99.90
2022-09-20T18:29:05.553Z,99.90
2022-09-20T18:31:48.614Z,99.90
2022-09-20T18:34:21.085Z,99.90
2022-09-20T18:36:54.045Z,99.90
2022-09-20T18:39:25.196Z,99.90
2022-09-20T18:41:53.358Z,99.90
2022-09-20T18:44:21.031Z,99.90
2022-09-20T18:46:48.212Z,99.90
2022-09-20T18:49:16.661Z,99.90
2022-09-20T18:51:44.261Z,99.90
2022-09-20T18:54:11.685Z,99.90
2022-09-20T18:56:40.281Z,99.90
2022-09-20T18:59:25.148Z,99.90
2022-09-20T19:02:23.922Z,99.90
2022-09-20T19:04:57.657Z,99.90
2022-09-20T19:07:27.254Z,99.90
2022-09-20T19:10:06.131Z,99.90
2022-09-20T19:12:44.453Z,99.90
2022-09-20T19:15:17.089Z,99.90
2022-09-20T19:18:04.704Z,99.90
2022-09-20T19:21:00.391Z,99.90
2022-09-20T19:23:52.820Z,99.90
2022-09-20T19:26:22.282Z,99.90
2022-09-20T19:28:54.947Z,99.90
2022-09-20T19:31:33.319Z,99.90
2022-09-20T19:34:04.324Z,99.90
2022-09-20T19:36:55.767Z,99.90
2022-09-20T19:39:40.321Z,99.90
2022-09-20T19:42:31.544Z,99.90
2022-09-20T19:45:31.608Z,99.90
2022-09-20T19:48:28.149Z,99.90
2022-09-20T19:50:55.032Z,99.90
2022-09-20T19:53:24.480Z,99.90
2022-09-20T19:55:58.227Z,99.90
2022-09-20T19:58:25.576Z,99.90
2022-09-20T20:00:52.898Z,99.90
2022-09-20T20:03:20.083Z,99.90
2022-09-20T20:06:02.333Z,99.90
2022-09-20T20:08:54.833Z,99.90
2022-09-20T20:11:42.309Z,99.90
2022-09-20T20:14:24.018Z,99.90
2022-09-20T20:17:09.164Z,99.90
2022-09-20T20:20:01.539Z,99.90
2022-09-20T20:22:31.132Z,99.90
2022-09-20T20:24:58.061Z,99.90
2022-09-20T20:27:29.019Z,99.90
2022-09-20T20:29:55.813Z,99.90
2022-09-20T20:32:22.766Z,99.90
2022-09-20T20:34:49.987Z,99.90
2022-09-20T20:37:18.109Z,99.90
2022-09-20T20:39:44.730Z,99.90
2022-09-20T20:42:12.768Z,99.90
2022-09-20T20:44:39.916Z,99.90
2022-09-20T20:47:06.829Z,99.90
2022-09-20T20:49:33.689Z,99.90
2022-09-20T20:52:04.456Z,99.90
2022-09-20T20:54:32.064Z,99.90
2022-09-20T20:56:59.144Z,99.90
2022-09-20T20:59:25.732Z,99.90
2022-09-20T21:01:52.382Z,99.90
2022-09-20T21:04:19.047Z,99.90
2022-09-20T21:06:45.618Z,99.90
2022-09-20T21:09:13.332Z,99.90
2022-09-20T21:11:44.738Z,99.90
2022-09-20T21:14:12.352Z,99.90
2022-09-20T21:16:44.109Z,99.90
2022-09-20T21:19:16.349Z,99.90
2022-09-20T21:21:44.649Z,99.90
2022-09-20T21:24:13.271Z,99.90
2022-09-20T21:26:40.200Z,99.90
2022-09-20T21:29:10.497Z,99.90
2022-09-20T21:31:39.425Z,99.90
2022-09-20T21:34:07.317Z,99.90
2022-09-20T21:36:35.361Z,99.90
2022-09-20T21:39:02.111Z,99.90
2022-09-20T21:41:31.484Z,99.90
2022-09-20T21:44:00.053Z,99.90
2022-09-20T21:46:32.222Z,99.90
2022-09-20T21:49:01.524Z,99.90
2022-09-20T21:51:31.533Z,99.90
2022-09-20T21:54:01.221Z,99.90
2022-09-20T21:56:39.008Z,99.90
2022-09-20T21:59:06.242Z,99.90
2022-09-20T22:01:35.680Z,99.90
2022-09-20T22:04:10.304Z,99.90
2022-09-20T22:06:39.239Z,99.90
2022-09-20T22:09:11.675Z,99.90
2022-09-20T22:11:44.097Z,99.90
2022-09-20T22:14:12.904Z,99.90
2022-09-20T22:16:41.065Z,99.90
2022-09-20T22:19:09.837Z,99.90
2022-09-20T22:21:48.021Z,99.90
2022-09-20T22:24:16.084Z,99.90
2022-09-20T22:26:46.070Z,99.90
2022-09-20T22:29:13.236Z,99.90
2022-09-20T22:31:44.870Z,99.90
2022-09-20T22:34:14.657Z,99.90
2022-09-20T22:36:42.481Z,99.90
2022-09-20T22:39:10.878Z,99.90
2022-09-20T22:41:39.089Z,99.90
2022-09-20T22:44:06.077Z,99.90
2022-09-20T22:46:33.479Z,99.90
2022-09-20T22:49:00.496Z,99.90
2022-09-20T22:51:30.680Z,99.90
2022-09-20T22:53:57.422Z,99.90
2022-09-20T22:56:26.324Z,99.90
2022-09-20T22:58:55.292Z,99.90
2022-09-20T23:01:27.643Z,99.90
2022-09-20T23:03:58.683Z,99.90
2022-09-20T23:06:31.813Z,99.90
2022-09-20T23:09:00.603Z,99.90
2022-09-20T23:11:28.308Z,99.90
2022-09-20T23:13:56.733Z,99.90
2022-09-20T23:16:26.177Z,99.90
2022-09-20T23:18:54.231Z,99.90
2022-09-20T23:21:21.169Z,99.90
2022-09-20T23:23:55.667Z,99.90
2022-09-20T23:26:23.511Z,99.90
2022-09-20T23:28:59.232Z,99.90
2022-09-20T23:31:27.100Z,99.90
2022-09-20T23:33:56.973Z,99.90
2022-09-20T23:36:25.216Z,99.90
2022-09-20T23:38:51.784Z,99.90
2022-09-20T23:41:20.413Z,99.90
2022-09-20T23:43:47.758Z,99.90
2022-09-20T23:46:16.478Z,99.90
2022-09-20T23:48:43.672Z,99.90
2022-09-20T23:51:16.177Z,99.90
2022-09-20T23:53:44.244Z,99.90
2022-09-20T23:56:11.937Z,99.90
2022-09-20T23:58:40.872Z,99.90
